Terminal Aerodrome Forecast
Issued by NWS Brownsville, TX

Home | Current Version | Previous Version | Text Only | Print | Product List | Glossary On
Versions: 1 2 3 4 5 6 7 8 9 10 11 12 13 14 15 16 17 18 19 20 21 22 23 24 25
000
FTUS44 KBRO 220918 AAC
TAFMFE
TAF AMD
KMFE 220918Z 2209/2306 00000KT 6SM BR FEW016 SCT024 SCT029
     FM221500 13010KT P6SM VCSH BKN035
     FM221800 13013KT P6SM VCTS SCT025 OVC040CB PROB30 2218/2224 6SM
      -TSRA BKN025CB
     FM230000 12010KT P6SM VCSH BKN050 OVC100=

USA.gov is the U.S. government's official web portal to all federal, state and local government web resources and services.